sensor_id;sensor_type;location;lat;lon;timestamp;P1;durP1;ratioP1;P2;durP2;ratioP2
22924;SDS011;11628;51.072;3.712;2023-03-24T00:01:21;4.38;;;3.03;;
22924;SDS011;11628;51.072;3.712;2023-03-24T00:03:47;4.68;;;3.55;;
22924;SDS011;11628;51.072;3.712;2023-03-24T00:06:13;8.13;;;3.65;;
22924;SDS011;11628;51.072;3.712;2023-03-24T00:08:39;6.78;;;3.88;;
22924;SDS011;11628;51.072;3.712;2023-03-24T00:11:09;4.97;;;2.97;;
22924;SDS011;11628;51.072;3.712;2023-03-24T00:13:36;6.82;;;4.00;;
22924;SDS011;11628;51.072;3.712;2023-03-24T00:16:06;6.80;;;3.65;;
22924;SDS011;11628;51.072;3.712;2023-03-24T00:18:34;5.40;;;3.17;;
22924;SDS011;11628;51.072;3.712;2023-03-24T00:21:01;7.03;;;4.30;;
22924;SDS011;11628;51.072;3.712;2023-03-24T00:23:27;6.90;;;3.80;;
22924;SDS011;11628;51.072;3.712;2023-03-24T00:26:08;7.70;;;3.65;;
22924;SDS011;11628;51.072;3.712;2023-03-24T00:28:40;8.25;;;3.78;;
22924;SDS011;11628;51.072;3.712;2023-03-24T00:31:08;7.82;;;4.35;;
22924;SDS011;11628;51.072;3.712;2023-03-24T00:33:35;7.10;;;3.80;;
22924;SDS011;11628;51.072;3.712;2023-03-24T00:36:02;6.43;;;3.50;;
22924;SDS011;11628;51.072;3.712;2023-03-24T00:38:30;5.93;;;4.15;;
22924;SDS011;11628;51.072;3.712;2023-03-24T00:40:58;6.05;;;3.55;;
22924;SDS011;11628;51.072;3.712;2023-03-24T00:43:25;6.07;;;3.60;;
22924;SDS011;11628;51.072;3.712;2023-03-24T00:46:02;4.25;;;3.55;;
22924;SDS011;11628;51.072;3.712;2023-03-24T00:48:30;6.30;;;3.33;;
22924;SDS011;11628;51.072;3.712;2023-03-24T00:50:59;5.03;;;3.67;;
22924;SDS011;11628;51.072;3.712;2023-03-24T00:53:27;7.97;;;3.85;;
22924;SDS011;11628;51.072;3.712;2023-03-24T00:55:53;5.10;;;3.65;;
22924;SDS011;11628;51.072;3.712;2023-03-24T00:58:19;6.72;;;4.88;;
22924;SDS011;11628;51.072;3.712;2023-03-24T01:00:47;4.68;;;3.17;;
22924;SDS011;11628;51.072;3.712;2023-03-24T01:03:15;7.05;;;4.25;;
22924;SDS011;11628;51.072;3.712;2023-03-24T01:05:42;4.82;;;4.32;;
22924;SDS011;11628;51.072;3.712;2023-03-24T01:08:12;6.00;;;4.38;;
22924;SDS011;11628;51.072;3.712;2023-03-24T01:10:39;7.63;;;4.88;;
22924;SDS011;11628;51.072;3.712;2023-03-24T01:13:21;8.35;;;4.82;;
22924;SDS011;11628;51.072;3.712;2023-03-24T01:15:49;8.35;;;5.35;;
22924;SDS011;11628;51.072;3.712;2023-03-24T01:18:16;7.60;;;4.63;;
22924;SDS011;11628;51.072;3.712;2023-03-24T01:20:43;7.30;;;3.90;;
22924;SDS011;11628;51.072;3.712;2023-03-24T01:23:11;6.00;;;4.38;;
22924;SDS011;11628;51.072;3.712;2023-03-24T01:25:39;5.43;;;3.70;;
22924;SDS011;11628;51.072;3.712;2023-03-24T01:28:09;4.93;;;3.17;;
22924;SDS011;11628;51.072;3.712;2023-03-24T01:30:36;3.58;;;1.70;;
22924;SDS011;11628;51.072;3.712;2023-03-24T01:33:02;3.30;;;1.05;;
22924;SDS011;11628;51.072;3.712;2023-03-24T01:35:31;2.30;;;0.98;;
22924;SDS011;11628;51.072;3.712;2023-03-24T01:37:57;1.80;;;1.00;;
22924;SDS011;11628;51.072;3.712;2023-03-24T01:40:26;2.65;;;0.95;;
22924;SDS011;11628;51.072;3.712;2023-03-24T01:42:54;1.02;;;0.80;;
22924;SDS011;11628;51.072;3.712;2023-03-24T01:45:41;2.65;;;0.80;;
22924;SDS011;11628;51.072;3.712;2023-03-24T01:50:56;4.10;;;1.02;;
22924;SDS011;11628;51.072;3.712;2023-03-24T01:53:55;2.92;;;1.00;;
22924;SDS011;11628;51.072;3.712;2023-03-24T01:56:25;3.55;;;1.10;;
22924;SDS011;11628;51.072;3.712;2023-03-24T01:58:57;3.17;;;1.00;;
22924;SDS011;11628;51.072;3.712;2023-03-24T02:01:26;3.80;;;1.20;;
22924;SDS011;11628;51.072;3.712;2023-03-24T02:03:58;2.95;;;1.08;;
22924;SDS011;11628;51.072;3.712;2023-03-24T02:06:28;5.03;;;1.50;;
22924;SDS011;11628;51.072;3.712;2023-03-24T02:08:58;5.18;;;1.20;;
22924;SDS011;11628;51.072;3.712;2023-03-24T02:11:29;4.78;;;1.10;;
22924;SDS011;11628;51.072;3.712;2023-03-24T02:13:56;3.38;;;0.90;;
22924;SDS011;11628;51.072;3.712;2023-03-24T02:16:26;4.50;;;1.33;;
22924;SDS011;11628;51.072;3.712;2023-03-24T02:19:35;7.97;;;1.40;;
22924;SDS011;11628;51.072;3.712;2023-03-24T02:22:39;4.90;;;1.50;;
22924;SDS011;11628;51.072;3.712;2023-03-24T02:44:45;8.82;;;1.63;;
22924;SDS011;11628;51.072;3.712;2023-03-24T02:47:39;6.60;;;1.50;;
22924;SDS011;11628;51.072;3.712;2023-03-24T02:50:13;6.75;;;1.55;;
22924;SDS011;11628;51.072;3.712;2023-03-24T02:52:59;4.95;;;1.70;;
22924;SDS011;11628;51.072;3.712;2023-03-24T02:55:38;8.52;;;1.90;;
22924;SDS011;11628;51.072;3.712;2023-03-24T02:58:12;8.48;;;1.67;;
22924;SDS011;11628;51.072;3.712;2023-03-24T03:00:49;8.07;;;1.55;;
22924;SDS011;11628;51.072;3.712;2023-03-24T03:03:27;10.07;;;1.92;;
22924;SDS011;11628;51.072;3.712;2023-03-24T03:08:28;5.95;;;1.73;;
22924;SDS011;11628;51.072;3.712;2023-03-24T03:10:58;8.27;;;1.83;;
22924;SDS011;11628;51.072;3.712;2023-03-24T03:16:08;7.93;;;1.50;;
22924;SDS011;11628;51.072;3.712;2023-03-24T03:18:39;11.43;;;1.67;;
22924;SDS011;11628;51.072;3.712;2023-03-24T03:21:11;9.55;;;2.53;;
22924;SDS011;11628;51.072;3.712;2023-03-24T03:23:45;9.50;;;1.67;;
22924;SDS011;11628;51.072;3.712;2023-03-24T03:26:17;12.00;;;2.17;;
22924;SDS011;11628;51.072;3.712;2023-03-24T03:28:49;12.07;;;1.88;;
22924;SDS011;11628;51.072;3.712;2023-03-24T03:31:23;10.10;;;1.77;;
22924;SDS011;11628;51.072;3.712;2023-03-24T03:36:56;12.25;;;2.55;;
22924;SDS011;11628;51.072;3.712;2023-03-24T03:39:32;12.68;;;1.98;;
22924;SDS011;11628;51.072;3.712;2023-03-24T03:42:00;12.82;;;2.63;;
22924;SDS011;11628;51.072;3.712;2023-03-24T03:44:28;15.50;;;2.67;;
22924;SDS011;11628;51.072;3.712;2023-03-24T03:46:55;13.20;;;2.20;;
22924;SDS011;11628;51.072;3.712;2023-03-24T03:49:21;14.18;;;2.25;;
22924;SDS011;11628;51.072;3.712;2023-03-24T03:51:49;10.13;;;2.55;;
22924;SDS011;11628;51.072;3.712;2023-03-24T03:54:16;11.57;;;2.63;;
22924;SDS011;11628;51.072;3.712;2023-03-24T03:56:43;10.63;;;2.03;;
22924;SDS011;11628;51.072;3.712;2023-03-24T03:59:21;15.15;;;3.00;;
22924;SDS011;11628;51.072;3.712;2023-03-24T04:01:58;11.57;;;2.28;;
22924;SDS011;11628;51.072;3.712;2023-03-24T04:04:36;8.88;;;1.98;;
22924;SDS011;11628;51.072;3.712;2023-03-24T04:07:27;14.52;;;2.15;;
22924;SDS011;11628;51.072;3.712;2023-03-24T04:10:20;12.95;;;2.92;;
22924;SDS011;11628;51.072;3.712;2023-03-24T04:15:44;12.77;;;2.22;;
22924;SDS011;11628;51.072;3.712;2023-03-24T04:21:13;15.07;;;3.65;;
22924;SDS011;11628;51.072;3.712;2023-03-24T04:27:11;14.18;;;2.90;;
22924;SDS011;11628;51.072;3.712;2023-03-24T04:32:27;14.05;;;2.53;;
22924;SDS011;11628;51.072;3.712;2023-03-24T04:35:00;16.88;;;3.30;;
22924;SDS011;11628;51.072;3.712;2023-03-24T04:37:31;15.77;;;2.55;;
22924;SDS011;11628;51.072;3.712;2023-03-24T04:40:02;16.50;;;3.15;;
22924;SDS011;11628;51.072;3.712;2023-03-24T04:42:45;17.60;;;2.60;;
22924;SDS011;11628;51.072;3.712;2023-03-24T04:45:16;23.20;;;3.72;;
22924;SDS011;11628;51.072;3.712;2023-03-24T04:47:45;11.48;;;2.10;;
22924;SDS011;11628;51.072;3.712;2023-03-24T04:50:26;19.45;;;2.53;;
22924;SDS011;11628;51.072;3.712;2023-03-24T04:52:55;14.85;;;2.92;;
22924;SDS011;11628;51.072;3.712;2023-03-24T04:55:43;14.60;;;2.20;;
22924;SDS011;11628;51.072;3.712;2023-03-24T04:58:14;16.42;;;2.63;;
22924;SDS011;11628;51.072;3.712;2023-03-24T05:00:41;20.80;;;3.08;;
22924;SDS011;11628;51.072;3.712;2023-03-24T05:03:08;16.63;;;2.63;;
22924;SDS011;11628;51.072;3.712;2023-03-24T05:05:43;18.92;;;3.92;;
22924;SDS011;11628;51.072;3.712;2023-03-24T05:08:12;18.35;;;2.35;;
22924;SDS011;11628;51.072;3.712;2023-03-24T05:10:38;15.18;;;2.50;;
22924;SDS011;11628;51.072;3.712;2023-03-24T05:13:05;15.20;;;2.28;;
22924;SDS011;11628;51.072;3.712;2023-03-24T05:15:31;20.17;;;2.67;;
22924;SDS011;11628;51.072;3.712;2023-03-24T05:17:57;15.07;;;3.05;;
22924;SDS011;11628;51.072;3.712;2023-03-24T05:20:24;16.58;;;3.38;;
22924;SDS011;11628;51.072;3.712;2023-03-24T05:22:50;14.07;;;3.28;;
22924;SDS011;11628;51.072;3.712;2023-03-24T05:25:16;13.45;;;2.65;;
22924;SDS011;11628;51.072;3.712;2023-03-24T05:27:43;20.23;;;3.83;;
22924;SDS011;11628;51.072;3.712;2023-03-24T05:30:09;16.08;;;2.88;;
22924;SDS011;11628;51.072;3.712;2023-03-24T05:32:35;20.10;;;2.97;;
22924;SDS011;11628;51.072;3.712;2023-03-24T05:35:01;15.05;;;2.60;;
22924;SDS011;11628;51.072;3.712;2023-03-24T05:37:27;15.65;;;2.75;;
22924;SDS011;11628;51.072;3.712;2023-03-24T05:39:53;19.00;;;2.65;;
22924;SDS011;11628;51.072;3.712;2023-03-24T05:42:19;18.50;;;3.50;;
22924;SDS011;11628;51.072;3.712;2023-03-24T05:44:45;13.73;;;3.55;;
22924;SDS011;11628;51.072;3.712;2023-03-24T05:47:11;17.20;;;2.92;;
22924;SDS011;11628;51.072;3.712;2023-03-24T05:49:40;15.30;;;2.35;;
22924;SDS011;11628;51.072;3.712;2023-03-24T05:52:07;16.52;;;2.38;;
22924;SDS011;11628;51.072;3.712;2023-03-24T05:54:33;16.30;;;3.15;;
22924;SDS011;11628;51.072;3.712;2023-03-24T05:57:00;17.52;;;4.40;;
22924;SDS011;11628;51.072;3.712;2023-03-24T05:59:26;18.00;;;3.45;;
22924;SDS011;11628;51.072;3.712;2023-03-24T06:01:52;15.00;;;2.67;;
22924;SDS011;11628;51.072;3.712;2023-03-24T06:04:21;20.23;;;3.35;;
22924;SDS011;11628;51.072;3.712;2023-03-24T06:06:47;14.32;;;2.75;;
22924;SDS011;11628;51.072;3.712;2023-03-24T06:09:13;14.55;;;2.55;;
22924;SDS011;11628;51.072;3.712;2023-03-24T06:11:43;18.48;;;3.00;;
22924;SDS011;11628;51.072;3.712;2023-03-24T06:14:09;15.55;;;3.03;;
22924;SDS011;11628;51.072;3.712;2023-03-24T06:16:35;17.55;;;2.75;;
22924;SDS011;11628;51.072;3.712;2023-03-24T06:19:05;15.23;;;3.00;;
22924;SDS011;11628;51.072;3.712;2023-03-24T06:21:31;17.08;;;3.40;;
22924;SDS011;11628;51.072;3.712;2023-03-24T06:23:58;16.98;;;3.30;;
22924;SDS011;11628;51.072;3.712;2023-03-24T06:26:24;13.85;;;3.05;;
22924;SDS011;11628;51.072;3.712;2023-03-24T06:28:54;12.55;;;2.13;;
22924;SDS011;11628;51.072;3.712;2023-03-24T06:31:20;11.52;;;2.13;;
22924;SDS011;11628;51.072;3.712;2023-03-24T06:33:48;13.80;;;2.28;;
22924;SDS011;11628;51.072;3.712;2023-03-24T06:36:15;10.13;;;2.47;;
22924;SDS011;11628;51.072;3.712;2023-03-24T06:38:41;15.20;;;2.65;;
22924;SDS011;11628;51.072;3.712;2023-03-24T06:41:07;19.50;;;2.78;;
22924;SDS011;11628;51.072;3.712;2023-03-24T06:43:34;18.00;;;3.00;;
22924;SDS011;11628;51.072;3.712;2023-03-24T06:46:00;14.82;;;2.10;;
22924;SDS011;11628;51.072;3.712;2023-03-24T06:48:26;15.85;;;3.08;;
22924;SDS011;11628;51.072;3.712;2023-03-24T06:50:52;17.23;;;2.45;;
22924;SDS011;11628;51.072;3.712;2023-03-24T06:53:19;10.60;;;2.35;;
22924;SDS011;11628;51.072;3.712;2023-03-24T06:55:48;12.40;;;2.72;;
22924;SDS011;11628;51.072;3.712;2023-03-24T06:58:15;13.52;;;2.20;;
22924;SDS011;11628;51.072;3.712;2023-03-24T07:00:42;12.45;;;2.67;;
22924;SDS011;11628;51.072;3.712;2023-03-24T07:03:08;15.57;;;2.13;;
22924;SDS011;11628;51.072;3.712;2023-03-24T07:05:39;17.73;;;2.40;;
22924;SDS011;11628;51.072;3.712;2023-03-24T07:08:07;13.75;;;2.33;;
22924;SDS011;11628;51.072;3.712;2023-03-24T07:10:33;12.65;;;2.42;;
22924;SDS011;11628;51.072;3.712;2023-03-24T07:13:00;13.13;;;2.08;;
22924;SDS011;11628;51.072;3.712;2023-03-24T07:15:27;11.07;;;2.22;;
22924;SDS011;11628;51.072;3.712;2023-03-24T07:17:54;12.10;;;2.30;;
22924;SDS011;11628;51.072;3.712;2023-03-24T07:20:20;15.55;;;2.67;;
22924;SDS011;11628;51.072;3.712;2023-03-24T07:22:46;13.18;;;2.30;;
22924;SDS011;11628;51.072;3.712;2023-03-24T07:25:12;11.23;;;2.60;;
22924;SDS011;11628;51.072;3.712;2023-03-24T07:27:38;13.45;;;2.25;;
22924;SDS011;11628;51.072;3.712;2023-03-24T07:30:05;13.02;;;2.45;;
22924;SDS011;11628;51.072;3.712;2023-03-24T07:32:31;18.15;;;3.03;;
22924;SDS011;11628;51.072;3.712;2023-03-24T07:35:03;15.05;;;2.90;;
22924;SDS011;11628;51.072;3.712;2023-03-24T07:37:37;11.52;;;2.45;;
22924;SDS011;11628;51.072;3.712;2023-03-24T07:40:04;11.38;;;2.13;;
22924;SDS011;11628;51.072;3.712;2023-03-24T07:42:39;11.63;;;3.75;;
22924;SDS011;11628;51.072;3.712;2023-03-24T07:45:06;12.43;;;2.55;;
22924;SDS011;11628;51.072;3.712;2023-03-24T07:47:34;10.82;;;2.95;;
22924;SDS011;11628;51.072;3.712;2023-03-24T07:50:01;10.40;;;2.22;;
22924;SDS011;11628;51.072;3.712;2023-03-24T07:52:28;12.05;;;2.33;;
22924;SDS011;11628;51.072;3.712;2023-03-24T07:54:55;10.82;;;2.22;;
22924;SDS011;11628;51.072;3.712;2023-03-24T07:57:21;9.20;;;2.10;;
22924;SDS011;11628;51.072;3.712;2023-03-24T07:59:48;13.18;;;2.05;;
22924;SDS011;11628;51.072;3.712;2023-03-24T08:02:17;12.82;;;2.63;;
22924;SDS011;11628;51.072;3.712;2023-03-24T08:04:44;13.55;;;2.33;;
22924;SDS011;11628;51.072;3.712;2023-03-24T08:07:11;11.68;;;2.13;;
22924;SDS011;11628;51.072;3.712;2023-03-24T08:09:38;11.20;;;2.15;;
22924;SDS011;11628;51.072;3.712;2023-03-24T08:12:04;14.43;;;3.13;;
22924;SDS011;11628;51.072;3.712;2023-03-24T08:14:30;10.30;;;2.85;;
22924;SDS011;11628;51.072;3.712;2023-03-24T08:16:56;10.90;;;2.25;;
22924;SDS011;11628;51.072;3.712;2023-03-24T08:19:21;8.95;;;2.45;;
22924;SDS011;11628;51.072;3.712;2023-03-24T08:21:47;19.15;;;2.85;;
22924;SDS011;11628;51.072;3.712;2023-03-24T08:24:13;10.60;;;2.75;;
22924;SDS011;11628;51.072;3.712;2023-03-24T08:26:39;9.90;;;2.05;;
22924;SDS011;11628;51.072;3.712;2023-03-24T08:29:06;12.68;;;2.55;;
22924;SDS011;11628;51.072;3.712;2023-03-24T08:31:32;10.48;;;2.40;;
22924;SDS011;11628;51.072;3.712;2023-03-24T08:33:59;12.93;;;2.13;;
22924;SDS011;11628;51.072;3.712;2023-03-24T08:36:25;11.63;;;2.72;;
22924;SDS011;11628;51.072;3.712;2023-03-24T08:38:51;16.15;;;2.35;;
22924;SDS011;11628;51.072;3.712;2023-03-24T08:41:19;11.82;;;2.20;;
22924;SDS011;11628;51.072;3.712;2023-03-24T08:43:46;12.20;;;2.28;;
22924;SDS011;11628;51.072;3.712;2023-03-24T08:46:12;16.67;;;3.35;;
22924;SDS011;11628;51.072;3.712;2023-03-24T08:48:40;11.60;;;2.58;;
22924;SDS011;11628;51.072;3.712;2023-03-24T08:51:12;12.50;;;2.75;;
22924;SDS011;11628;51.072;3.712;2023-03-24T08:53:39;11.98;;;2.58;;
22924;SDS011;11628;51.072;3.712;2023-03-24T08:56:05;12.82;;;2.38;;
22924;SDS011;11628;51.072;3.712;2023-03-24T08:58:32;12.40;;;2.35;;
22924;SDS011;11628;51.072;3.712;2023-03-24T09:00:57;11.38;;;2.10;;
22924;SDS011;11628;51.072;3.712;2023-03-24T09:03:23;11.50;;;2.50;;
22924;SDS011;11628;51.072;3.712;2023-03-24T09:05:53;10.35;;;2.75;;
22924;SDS011;11628;51.072;3.712;2023-03-24T09:08:21;10.13;;;2.20;;
22924;SDS011;11628;51.072;3.712;2023-03-24T09:10:47;12.32;;;2.28;;
22924;SDS011;11628;51.072;3.712;2023-03-24T09:13:13;14.70;;;3.17;;
22924;SDS011;11628;51.072;3.712;2023-03-24T09:15:44;14.85;;;2.70;;
22924;SDS011;11628;51.072;3.712;2023-03-24T09:18:11;11.18;;;2.17;;
22924;SDS011;11628;51.072;3.712;2023-03-24T09:20:37;16.50;;;3.33;;
22924;SDS011;11628;51.072;3.712;2023-03-24T09:23:03;9.52;;;2.50;;
22924;SDS011;11628;51.072;3.712;2023-03-24T09:25:28;11.07;;;2.25;;
22924;SDS011;11628;51.072;3.712;2023-03-24T09:27:54;9.98;;;2.03;;
22924;SDS011;11628;51.072;3.712;2023-03-24T09:30:21;12.30;;;3.00;;
22924;SDS011;11628;51.072;3.712;2023-03-24T09:32:46;16.98;;;2.42;;
22924;SDS011;11628;51.072;3.712;2023-03-24T09:35:12;12.93;;;2.35;;
22924;SDS011;11628;51.072;3.712;2023-03-24T09:37:39;9.23;;;2.00;;
22924;SDS011;11628;51.072;3.712;2023-03-24T09:40:07;13.88;;;2.75;;
22924;SDS011;11628;51.072;3.712;2023-03-24T09:42:39;14.30;;;2.72;;
22924;SDS011;11628;51.072;3.712;2023-03-24T09:45:16;9.05;;;2.05;;
22924;SDS011;11628;51.072;3.712;2023-03-24T09:47:52;15.20;;;2.92;;
22924;SDS011;11628;51.072;3.712;2023-03-24T09:50:23;16.00;;;2.33;;
22924;SDS011;11628;51.072;3.712;2023-03-24T09:55:57;7.10;;;1.73;;
22924;SDS011;11628;51.072;3.712;2023-03-24T09:58:27;8.75;;;2.03;;
22924;SDS011;11628;51.072;3.712;2023-03-24T10:00:56;11.32;;;1.98;;
22924;SDS011;11628;51.072;3.712;2023-03-24T10:03:22;9.43;;;2.17;;
22924;SDS011;11628;51.072;3.712;2023-03-24T10:05:55;8.43;;;1.70;;
22924;SDS011;11628;51.072;3.712;2023-03-24T10:08:27;12.55;;;1.90;;
22924;SDS011;11628;51.072;3.712;2023-03-24T10:11:03;5.82;;;1.42;;
22924;SDS011;11628;51.072;3.712;2023-03-24T10:17:10;6.20;;;1.50;;
22924;SDS011;11628;51.072;3.712;2023-03-24T10:24:58;6.20;;;1.77;;
22924;SDS011;11628;51.072;3.712;2023-03-24T10:27:46;6.07;;;1.55;;
22924;SDS011;11628;51.072;3.712;2023-03-24T10:30:16;7.65;;;1.70;;
22924;SDS011;11628;51.072;3.712;2023-03-24T10:32:46;6.78;;;1.38;;
22924;SDS011;11628;51.072;3.712;2023-03-24T10:35:17;5.93;;;1.83;;
22924;SDS011;11628;51.072;3.712;2023-03-24T10:37:49;6.20;;;1.00;;
22924;SDS011;11628;51.072;3.712;2023-03-24T10:40:17;5.85;;;1.02;;
22924;SDS011;11628;51.072;3.712;2023-03-24T10:42:46;7.35;;;1.42;;
22924;SDS011;11628;51.072;3.712;2023-03-24T10:45:14;4.95;;;1.17;;
22924;SDS011;11628;51.072;3.712;2023-03-24T10:47:48;7.28;;;1.50;;
22924;SDS011;11628;51.072;3.712;2023-03-24T10:50:15;4.65;;;1.10;;
22924;SDS011;11628;51.072;3.712;2023-03-24T10:52:42;4.20;;;1.20;;
22924;SDS011;11628;51.072;3.712;2023-03-24T10:55:17;7.00;;;1.50;;
22924;SDS011;11628;51.072;3.712;2023-03-24T10:57:48;8.18;;;1.88;;
22924;SDS011;11628;51.072;3.712;2023-03-24T11:00:27;5.45;;;1.55;;
22924;SDS011;11628;51.072;3.712;2023-03-24T11:05:33;8.10;;;1.83;;
22924;SDS011;11628;51.072;3.712;2023-03-24T11:10:45;5.25;;;2.55;;
22924;SDS011;11628;51.072;3.712;2023-03-24T11:13:18;6.90;;;1.48;;
22924;SDS011;11628;51.072;3.712;2023-03-24T11:15:55;7.93;;;1.90;;
22924;SDS011;11628;51.072;3.712;2023-03-24T11:18:35;8.95;;;1.98;;
22924;SDS011;11628;51.072;3.712;2023-03-24T11:21:01;8.27;;;2.10;;
22924;SDS011;11628;51.072;3.712;2023-03-24T11:23:32;7.70;;;2.08;;
22924;SDS011;11628;51.072;3.712;2023-03-24T11:26:04;8.25;;;1.58;;
22924;SDS011;11628;51.072;3.712;2023-03-24T11:28:36;8.63;;;2.28;;
22924;SDS011;11628;51.072;3.712;2023-03-24T11:31:09;7.15;;;1.45;;
22924;SDS011;11628;51.072;3.712;2023-03-24T11:34:29;5.45;;;1.25;;
22924;SDS011;11628;51.072;3.712;2023-03-24T11:52:32;8.13;;;1.73;;
22924;SDS011;11628;51.072;3.712;2023-03-24T11:55:15;6.88;;;1.70;;
22924;SDS011;11628;51.072;3.712;2023-03-24T12:00:23;6.38;;;1.35;;
22924;SDS011;11628;51.072;3.712;2023-03-24T12:05:38;8.30;;;1.40;;
22924;SDS011;11628;51.072;3.712;2023-03-24T12:13:41;6.20;;;1.95;;
22924;SDS011;11628;51.072;3.712;2023-03-24T12:22:00;11.10;;;2.20;;
22924;SDS011;11628;51.072;3.712;2023-03-24T12:27:06;8.88;;;2.03;;
22924;SDS011;11628;51.072;3.712;2023-03-24T12:29:58;13.15;;;2.85;;
22924;SDS011;11628;51.072;3.712;2023-03-24T12:38:51;8.38;;;1.80;;
22924;SDS011;11628;51.072;3.712;2023-03-24T12:53:42;3.95;;;1.27;;
22924;SDS011;11628;51.072;3.712;2023-03-24T12:56:12;8.27;;;1.67;;
22924;SDS011;11628;51.072;3.712;2023-03-24T13:01:22;4.47;;;1.10;;
22924;SDS011;11628;51.072;3.712;2023-03-24T13:04:07;4.35;;;1.17;;
22924;SDS011;11628;51.072;3.712;2023-03-24T13:09:30;4.18;;;0.90;;
22924;SDS011;11628;51.072;3.712;2023-03-24T13:17:49;8.35;;;1.63;;
22924;SDS011;11628;51.072;3.712;2023-03-24T13:20:23;4.93;;;1.20;;
22924;SDS011;11628;51.072;3.712;2023-03-24T13:22:49;5.95;;;1.67;;
22924;SDS011;11628;51.072;3.712;2023-03-24T13:28:16;6.47;;;1.10;;
22924;SDS011;11628;51.072;3.712;2023-03-24T13:30:49;7.05;;;1.20;;
22924;SDS011;11628;51.072;3.712;2023-03-24T13:33:16;8.27;;;1.45;;
22924;SDS011;11628;51.072;3.712;2023-03-24T13:35:54;6.35;;;1.30;;
22924;SDS011;11628;51.072;3.712;2023-03-24T13:38:37;20.35;;;1.98;;
22924;SDS011;11628;51.072;3.712;2023-03-24T13:41:12;5.65;;;1.50;;
22924;SDS011;11628;51.072;3.712;2023-03-24T13:43:47;9.00;;;3.58;;
22924;SDS011;11628;51.072;3.712;2023-03-24T13:46:15;9.88;;;1.42;;
22924;SDS011;11628;51.072;3.712;2023-03-24T13:48:41;13.13;;;2.00;;
22924;SDS011;11628;51.072;3.712;2023-03-24T13:51:20;9.55;;;2.65;;
22924;SDS011;11628;51.072;3.712;2023-03-24T13:53:56;12.95;;;2.20;;
22924;SDS011;11628;51.072;3.712;2023-03-24T14:01:37;8.63;;;2.28;;
22924;SDS011;11628;51.072;3.712;2023-03-24T14:06:56;7.63;;;2.30;;
22924;SDS011;11628;51.072;3.712;2023-03-24T14:09:27;12.18;;;2.72;;
22924;SDS011;11628;51.072;3.712;2023-03-24T14:21:50;11.65;;;1.92;;
22924;SDS011;11628;51.072;3.712;2023-03-24T14:24:22;9.15;;;1.80;;
22924;SDS011;11628;51.072;3.712;2023-03-24T14:26:53;10.15;;;1.90;;
22924;SDS011;11628;51.072;3.712;2023-03-24T14:29:40;8.25;;;1.70;;
22924;SDS011;11628;51.072;3.712;2023-03-24T14:32:16;7.22;;;1.30;;
22924;SDS011;11628;51.072;3.712;2023-03-24T14:34:56;9.25;;;1.98;;
22924;SDS011;11628;51.072;3.712;2023-03-24T14:37:24;7.95;;;1.85;;
22924;SDS011;11628;51.072;3.712;2023-03-24T14:39:51;5.30;;;1.20;;
22924;SDS011;11628;51.072;3.712;2023-03-24T14:42:40;6.00;;;1.20;;
22924;SDS011;11628;51.072;3.712;2023-03-24T14:47:57;4.43;;;1.30;;
22924;SDS011;11628;51.072;3.712;2023-03-24T14:50:25;4.35;;;0.90;;
22924;SDS011;11628;51.072;3.712;2023-03-24T14:52:52;3.70;;;1.42;;
22924;SDS011;11628;51.072;3.712;2023-03-24T14:55:21;5.40;;;1.00;;
22924;SDS011;11628;51.072;3.712;2023-03-24T14:57:50;9.20;;;8.27;;
22924;SDS011;11628;51.072;3.712;2023-03-24T15:00:32;3.47;;;0.80;;
22924;SDS011;11628;51.072;3.712;2023-03-24T15:03:26;5.55;;;1.88;;
22924;SDS011;11628;51.072;3.712;2023-03-24T15:06:12;5.60;;;1.25;;
22924;SDS011;11628;51.072;3.712;2023-03-24T15:08:48;5.93;;;1.15;;
22924;SDS011;11628;51.072;3.712;2023-03-24T15:11:17;8.13;;;1.10;;
22924;SDS011;11628;51.072;3.712;2023-03-24T15:13:54;3.90;;;1.30;;
22924;SDS011;11628;51.072;3.712;2023-03-24T15:16:31;4.75;;;1.13;;
22924;SDS011;11628;51.072;3.712;2023-03-24T15:19:03;8.15;;;1.45;;
22924;SDS011;11628;51.072;3.712;2023-03-24T15:21:34;7.93;;;1.70;;
22924;SDS011;11628;51.072;3.712;2023-03-24T15:24:01;6.50;;;1.33;;
22924;SDS011;11628;51.072;3.712;2023-03-24T15:26:45;4.60;;;1.25;;
22924;SDS011;11628;51.072;3.712;2023-03-24T15:29:12;7.10;;;1.80;;
22924;SDS011;11628;51.072;3.712;2023-03-24T15:31:38;7.20;;;1.15;;
22924;SDS011;11628;51.072;3.712;2023-03-24T15:34:23;7.40;;;2.00;;
22924;SDS011;11628;51.072;3.712;2023-03-24T15:36:54;5.53;;;1.05;;
22924;SDS011;11628;51.072;3.712;2023-03-24T15:39:32;7.97;;;1.13;;
22924;SDS011;11628;51.072;3.712;2023-03-24T15:42:03;5.55;;;1.00;;
22924;SDS011;11628;51.072;3.712;2023-03-24T15:44:37;7.55;;;1.38;;
22924;SDS011;11628;51.072;3.712;2023-03-24T15:47:05;6.00;;;1.00;;
22924;SDS011;11628;51.072;3.712;2023-03-24T15:49:59;7.50;;;2.30;;
22924;SDS011;11628;51.072;3.712;2023-03-24T15:52:29;3.67;;;1.55;;
22924;SDS011;11628;51.072;3.712;2023-03-24T15:54:59;5.13;;;1.25;;
22924;SDS011;11628;51.072;3.712;2023-03-24T15:57:28;7.60;;;1.10;;
22924;SDS011;11628;51.072;3.712;2023-03-24T16:00:10;7.50;;;1.30;;
22924;SDS011;11628;51.072;3.712;2023-03-24T16:02:47;5.00;;;1.17;;
22924;SDS011;11628;51.072;3.712;2023-03-24T16:07:56;5.70;;;1.40;;
22924;SDS011;11628;51.072;3.712;2023-03-24T16:13:19;5.93;;;1.30;;
22924;SDS011;11628;51.072;3.712;2023-03-24T16:15:52;3.22;;;1.00;;
22924;SDS011;11628;51.072;3.712;2023-03-24T16:18:31;4.33;;;1.00;;
22924;SDS011;11628;51.072;3.712;2023-03-24T16:21:11;7.25;;;1.50;;
22924;SDS011;11628;51.072;3.712;2023-03-24T16:23:42;4.72;;;1.55;;
22924;SDS011;11628;51.072;3.712;2023-03-24T16:26:12;8.18;;;2.10;;
22924;SDS011;11628;51.072;3.712;2023-03-24T16:28:39;7.78;;;2.55;;
22924;SDS011;11628;51.072;3.712;2023-03-24T16:31:05;7.65;;;1.90;;
22924;SDS011;11628;51.072;3.712;2023-03-24T16:33:32;12.40;;;4.40;;
22924;SDS011;11628;51.072;3.712;2023-03-24T16:35:58;6.38;;;1.45;;
22924;SDS011;11628;51.072;3.712;2023-03-24T16:38:25;8.63;;;2.33;;
22924;SDS011;11628;51.072;3.712;2023-03-24T16:40:52;10.95;;;3.78;;
22924;SDS011;11628;51.072;3.712;2023-03-24T16:43:20;4.40;;;1.00;;
22924;SDS011;11628;51.072;3.712;2023-03-24T16:45:46;4.60;;;0.90;;
22924;SDS011;11628;51.072;3.712;2023-03-24T16:48:14;6.38;;;0.80;;
22924;SDS011;11628;51.072;3.712;2023-03-24T16:50:41;6.78;;;1.30;;
22924;SDS011;11628;51.072;3.712;2023-03-24T16:53:08;4.82;;;1.00;;
22924;SDS011;11628;51.072;3.712;2023-03-24T16:55:38;4.25;;;1.00;;
22924;SDS011;11628;51.072;3.712;2023-03-24T16:58:06;4.75;;;0.88;;
22924;SDS011;11628;51.072;3.712;2023-03-24T17:00:33;6.68;;;1.25;;
22924;SDS011;11628;51.072;3.712;2023-03-24T17:03:02;3.20;;;1.10;;
22924;SDS011;11628;51.072;3.712;2023-03-24T17:05:36;6.22;;;1.23;;
22924;SDS011;11628;51.072;3.712;2023-03-24T17:08:05;2.97;;;1.10;;
22924;SDS011;11628;51.072;3.712;2023-03-24T17:10:31;6.18;;;1.05;;
22924;SDS011;11628;51.072;3.712;2023-03-24T17:12:57;3.20;;;0.77;;
22924;SDS011;11628;51.072;3.712;2023-03-24T17:15:24;2.95;;;0.90;;
22924;SDS011;11628;51.072;3.712;2023-03-24T17:17:52;6.22;;;1.05;;
22924;SDS011;11628;51.072;3.712;2023-03-24T17:20:18;11.63;;;7.10;;
22924;SDS011;11628;51.072;3.712;2023-03-24T17:22:45;25.45;;;15.65;;
22924;SDS011;11628;51.072;3.712;2023-03-24T17:25:14;9.43;;;2.65;;
22924;SDS011;11628;51.072;3.712;2023-03-24T17:27:42;8.57;;;2.42;;
22924;SDS011;11628;51.072;3.712;2023-03-24T17:30:09;9.35;;;2.30;;
22924;SDS011;11628;51.072;3.712;2023-03-24T17:32:39;9.25;;;1.92;;
22924;SDS011;11628;51.072;3.712;2023-03-24T17:35:05;4.35;;;1.33;;